createdAt,value
2022-12-19T00:01:53.511Z,100515.73
2022-12-19T00:04:21.280Z,100517.13
2022-12-19T00:06:48.840Z,100510.69
2022-12-19T00:09:16.460Z,100504.25
2022-12-19T00:11:44.058Z,100497.27
2022-12-19T00:14:12.248Z,100490.53
2022-12-19T00:16:40.017Z,100485.95
2022-12-19T00:19:09.673Z,100480.98
2022-12-19T00:21:38.124Z,100480.59
2022-12-19T00:24:18.420Z,100479.78
2022-12-19T00:26:49.870Z,100474.50
2022-12-19T00:29:17.579Z,100471.81
2022-12-19T00:31:45.530Z,100466.55
2022-12-19T00:34:13.219Z,100468.88
2022-12-19T00:36:41.289Z,100469.52
2022-12-19T00:39:09.354Z,100472.04
2022-12-19T00:41:40.066Z,100474.23
2022-12-19T00:44:14.342Z,100462.77
2022-12-19T00:46:42.710Z,100460.58
2022-12-19T00:49:12.851Z,100459.20
2022-12-19T00:51:40.728Z,100467.42
2022-12-19T00:54:10.211Z,100465.54
2022-12-19T00:56:38.506Z,100462.98
2022-12-19T00:59:07.076Z,100457.03
2022-12-19T01:01:37.657Z,100460.33
2022-12-19T01:06:57.906Z,100458.27
2022-12-19T01:09:30.942Z,100452.99
2022-12-19T01:11:58.871Z,100449.24
2022-12-19T01:14:26.803Z,100451.40
2022-12-19T01:16:54.534Z,100449.64
2022-12-19T01:19:22.563Z,100446.41
2022-12-19T01:21:50.422Z,100445.81
2022-12-19T01:24:19.100Z,100439.75
2022-12-19T01:26:47.371Z,100435.43
2022-12-19T01:29:15.423Z,100432.92
2022-12-19T01:31:43.458Z,100425.52
2022-12-19T01:34:11.320Z,100421.42
2022-12-19T01:36:40.073Z,100416.69
2022-12-19T01:39:08.373Z,100415.51
2022-12-19T01:41:37.574Z,100411.09
2022-12-19T01:44:08.209Z,100400.77
2022-12-19T01:46:37.655Z,100392.95
2022-12-19T01:49:10.008Z,100382.02
2022-12-19T01:51:43.433Z,100376.30
2022-12-19T01:54:17.581Z,100372.86
2022-12-19T01:56:50.289Z,100378.65
2022-12-19T01:59:22.506Z,100375.14
2022-12-19T02:01:55.598Z,100369.20
2022-12-19T02:04:26.296Z,100367.94
2022-12-19T02:07:14.395Z,100360.02
2022-12-19T02:09:56.644Z,100356.08
2022-12-19T02:12:28.458Z,100358.67
2022-12-19T02:15:02.804Z,100361.42
2022-12-19T02:17:33.695Z,100360.10
2022-12-19T02:20:33.934Z,100353.59
2022-12-19T02:23:17.075Z,100348.33
2022-12-19T02:25:56.765Z,100354.29
2022-12-19T02:28:43.216Z,100349.69
2022-12-19T02:31:17.846Z,100345.14
2022-12-19T02:34:10.468Z,100350.40
2022-12-19T02:36:48.906Z,100352.56
2022-12-19T02:39:26.617Z,100350.53
2022-12-19T02:41:58.225Z,100348.95
2022-12-19T02:44:41.257Z,100343.89
2022-12-19T02:47:10.049Z,100346.92
2022-12-19T02:49:39.230Z,100346.13
2022-12-19T02:52:10.926Z,100348.20
2022-12-19T02:54:45.213Z,100355.35
2022-12-19T02:57:20.247Z,100363.95
2022-12-19T02:59:58.598Z,100359.52
2022-12-19T03:02:47.500Z,100358.05
2022-12-19T03:05:34.183Z,100361.59
2022-12-19T03:08:21.673Z,100363.25
2022-12-19T03:11:01.416Z,100361.76
2022-12-19T03:13:34.322Z,100355.41
2022-12-19T03:16:04.569Z,100346.40
2022-12-19T03:18:33.591Z,100342.06
2022-12-19T03:21:11.267Z,100333.98
2022-12-19T03:23:40.111Z,100328.02
2022-12-19T03:26:12.418Z,100326.36
2022-12-19T03:28:51.544Z,100321.84
2022-12-19T03:31:23.840Z,100332.43
2022-12-19T03:33:56.730Z,100334.94
2022-12-19T03:36:30.666Z,100334.21
2022-12-19T03:39:01.933Z,100342.27
2022-12-19T03:41:31.551Z,100341.66
2022-12-19T03:43:59.440Z,100344.00
2022-12-19T03:46:27.958Z,100340.14
2022-12-19T03:48:56.060Z,100338.50
2022-12-19T03:51:45.566Z,100334.11
2022-12-19T03:54:27.076Z,100330.86
2022-12-19T03:57:08.526Z,100326.09
2022-12-19T03:59:52.676Z,100322.98
2022-12-19T04:02:22.607Z,100322.31
2022-12-19T04:05:02.522Z,100314.29
2022-12-19T04:07:31.448Z,100315.11
2022-12-19T04:09:59.393Z,100318.16
2022-12-19T04:12:34.261Z,100326.38
2022-12-19T04:15:02.216Z,100327.94
2022-12-19T04:17:49.358Z,100320.06
2022-12-19T04:20:20.984Z,100312.90
2022-12-19T04:22:54.815Z,100309.44
2022-12-19T04:25:29.633Z,100307.52
2022-12-19T04:28:03.411Z,100303.77
2022-12-19T04:30:36.607Z,100300.52
2022-12-19T04:33:05.032Z,100292.52
2022-12-19T04:35:33.134Z,100290.33
2022-12-19T04:38:01.126Z,100290.75
2022-12-19T04:40:29.274Z,100286.59
2022-12-19T04:42:56.839Z,100285.52
2022-12-19T04:45:24.879Z,100286.71
2022-12-19T04:47:53.066Z,100291.45
2022-12-19T04:50:20.890Z,100288.66
2022-12-19T04:52:49.331Z,100291.93
2022-12-19T04:55:18.972Z,100291.35
2022-12-19T04:57:46.930Z,100288.55
2022-12-19T05:00:15.066Z,100284.48
2022-12-19T05:02:42.842Z,100274.42
2022-12-19T05:05:10.544Z,100279.89
2022-12-19T05:07:38.436Z,100280.80
2022-12-19T05:10:07.623Z,100272.48
2022-12-19T05:12:35.586Z,100265.08
2022-12-19T05:15:03.480Z,100263.77
2022-12-19T05:17:31.382Z,100261.36
2022-12-19T05:19:59.069Z,100253.76
2022-12-19T05:22:27.334Z,100252.90
2022-12-19T05:24:54.852Z,100256.55
2022-12-19T05:27:23.087Z,100259.49
2022-12-19T05:29:51.120Z,100260.26
2022-12-19T05:32:18.800Z,100264.23
2022-12-19T05:34:46.680Z,100259.08
2022-12-19T05:37:14.319Z,100262.95
2022-12-19T05:39:42.065Z,100265.05
2022-12-19T05:42:12.474Z,100266.63
2022-12-19T05:44:40.525Z,100270.89
2022-12-19T05:47:08.299Z,100269.71
2022-12-19T05:49:36.043Z,100263.13
2022-12-19T05:52:04.318Z,100254.89
2022-12-19T05:54:32.296Z,100258.44
2022-12-19T05:57:00.016Z,100257.39
2022-12-19T05:59:28.605Z,100260.79
2022-12-19T06:01:56.800Z,100256.96
2022-12-19T06:04:24.896Z,100258.65
2022-12-19T06:06:52.574Z,100262.19
2022-12-19T06:09:20.645Z,100263.80
2022-12-19T06:11:48.717Z,100250.36
2022-12-19T06:14:16.865Z,100246.23
2022-12-19T06:16:44.940Z,100251.42
2022-12-19T06:19:12.575Z,100253.08
2022-12-19T06:21:47.919Z,100253.69
2022-12-19T06:24:16.316Z,100257.19
2022-12-19T06:26:44.673Z,100262.73
2022-12-19T06:29:12.644Z,100262.51
2022-12-19T06:31:40.290Z,100260.32
2022-12-19T06:34:10.521Z,100258.98
2022-12-19T06:36:38.689Z,100252.96
2022-12-19T06:39:06.508Z,100254.35
2022-12-19T06:41:34.099Z,100257.29
2022-12-19T06:44:03.946Z,100259.73
2022-12-19T06:46:32.942Z,100264.41
2022-12-19T06:49:01.081Z,100267.98
2022-12-19T06:51:29.134Z,100263.39
2022-12-19T06:53:57.488Z,100258.38
2022-12-19T06:56:25.594Z,100262.66
2022-12-19T06:58:53.381Z,100261.46
2022-12-19T07:01:23.961Z,100259.73
2022-12-19T07:03:52.310Z,100256.85
2022-12-19T07:06:20.860Z,100255.09
2022-12-19T07:08:48.691Z,100254.30
2022-12-19T07:11:16.509Z,100252.34
2022-12-19T07:13:45.438Z,100243.04
2022-12-19T07:16:14.839Z,100244.64
2022-12-19T07:18:44.342Z,100251.02
2022-12-19T07:21:13.442Z,100253.77
2022-12-19T07:23:41.453Z,100250.92
2022-12-19T07:26:09.371Z,100249.33
2022-12-19T07:28:37.880Z,100252.85
2022-12-19T07:31:05.809Z,100248.59
2022-12-19T07:33:33.631Z,100249.06
2022-12-19T07:36:01.823Z,100254.58
2022-12-19T07:38:29.648Z,100249.36
2022-12-19T07:41:01.072Z,100244.66
2022-12-19T07:43:28.904Z,100240.36
2022-12-19T07:45:56.904Z,100240.48
2022-12-19T07:48:25.126Z,100238.88
2022-12-19T07:50:52.672Z,100237.33
2022-12-19T07:53:20.490Z,100240.30
2022-12-19T07:55:52.547Z,100234.02
2022-12-19T07:58:20.219Z,100234.68
2022-12-19T08:00:56.001Z,100230.70
2022-12-19T08:03:24.617Z,100227.61
2022-12-19T08:05:52.750Z,100215.67
2022-12-19T08:08:20.627Z,100214.73
2022-12-19T08:10:48.649Z,100212.83
2022-12-19T08:13:16.508Z,100208.73
2022-12-19T08:15:44.431Z,100215.98
2022-12-19T08:18:12.624Z,100217.52
2022-12-19T08:20:43.502Z,100222.60
2022-12-19T08:23:11.663Z,100216.32
2022-12-19T08:25:39.292Z,100216.95
2022-12-19T08:28:07.150Z,100208.93
2022-12-19T08:30:35.196Z,100201.48
2022-12-19T08:33:03.474Z,100204.48
2022-12-19T08:35:31.534Z,100212.71
2022-12-19T08:37:59.376Z,100215.06
2022-12-19T08:40:27.019Z,100219.84
2022-12-19T08:42:55.650Z,100213.73
2022-12-19T08:45:23.375Z,100217.80
2022-12-19T08:47:51.199Z,100216.80
2022-12-19T08:50:19.063Z,100217.56
2022-12-19T08:52:47.212Z,100214.45
2022-12-19T08:55:15.604Z,100214.69
2022-12-19T08:57:47.591Z,100209.79
2022-12-19T09:00:16.080Z,100209.00
2022-12-19T09:02:44.842Z,100211.00
2022-12-19T09:06:02.217Z,100209.30
2022-12-19T09:08:00.870Z,100207.58
2022-12-19T09:10:28.856Z,100200.95
2022-12-19T09:12:57.948Z,100200.58
2022-12-19T09:15:25.981Z,100188.96
2022-12-19T09:17:53.913Z,100181.98
2022-12-19T09:20:23.559Z,100176.27
2022-12-19T09:22:51.606Z,100174.17
2022-12-19T09:25:19.196Z,100176.88
2022-12-19T09:28:25.283Z,100174.81
2022-12-19T09:30:35.524Z,100170.66
2022-12-19T09:33:03.194Z,100171.73
2022-12-19T09:35:31.149Z,100175.27
2022-12-19T09:38:00.506Z,100171.05
2022-12-19T12:46:38.305Z,99953.89
2022-12-19T12:49:23.078Z,99953.08
2022-12-19T12:51:51.961Z,99948.23
2022-12-19T12:54:20.735Z,99947.05
2022-12-19T12:56:48.823Z,99948.67
2022-12-19T12:59:21.409Z,99943.29
2022-12-19T13:01:52.151Z,99942.73
2022-12-19T13:04:26.195Z,99943.07
2022-12-19T13:06:53.715Z,99940.32
2022-12-19T13:09:27.246Z,99941.45
2022-12-19T13:12:02.548Z,99939.16
2022-12-19T13:14:36.558Z,99933.46
2022-12-19T13:17:06.200Z,99933.21
2022-12-19T13:19:38.329Z,99930.27
2022-12-19T13:22:08.824Z,99933.17
2022-12-19T13:24:48.529Z,99936.29
2022-12-19T13:27:19.035Z,99922.80
2022-12-19T13:30:02.206Z,99916.77
2022-12-19T13:32:53.935Z,99916.35
2022-12-19T13:36:38.611Z,99920.56
2022-12-19T13:39:55.642Z,99919.58
2022-12-19T13:41:05.860Z,99924.88
2022-12-19T13:43:39.203Z,99920.26
2022-12-19T13:46:18.837Z,99915.81
2022-12-19T13:48:52.343Z,99914.02
2022-12-19T13:51:20.067Z,99906.02
2022-12-19T13:53:59.034Z,99905.73
2022-12-19T13:56:30.364Z,99894.02
2022-12-19T13:58:59.315Z,99885.58
2022-12-19T14:01:28.036Z,99884.09
2022-12-19T14:04:07.659Z,99888.30
2022-12-19T14:06:47.536Z,99882.38
2022-12-19T14:11:28.167Z,99882.73
2022-12-19T14:13:40.421Z,99877.46
2022-12-19T14:15:32.452Z,99875.34
2022-12-19T14:18:44.819Z,99877.23
2022-12-19T14:22:11.645Z,99879.56
2022-12-19T14:24:21.939Z,99882.61
2022-12-19T14:28:20.708Z,99875.61
2022-12-19T14:30:29.692Z,99869.40
2022-12-19T14:33:41.969Z,99865.08
2022-12-19T14:36:10.213Z,99857.20
2022-12-19T14:39:23.376Z,99860.42
2022-12-19T14:41:29.521Z,99854.64
2022-12-19T14:52:34.729Z,99857.64
2022-12-19T14:54:03.816Z,99853.70
2022-12-19T14:54:07.203Z,99847.01
2022-12-19T14:54:21.298Z,99848.59
2022-12-19T14:56:15.944Z,99848.40
2022-12-19T14:58:52.848Z,99853.61
2022-12-19T15:01:24.176Z,99841.84
2022-12-19T15:04:47.833Z,99833.08
2022-12-19T15:07:09.670Z,99829.42
2022-12-19T15:11:06.501Z,99827.98
2022-12-19T15:14:04.191Z,99823.20
2022-12-19T15:15:23.048Z,99823.02
2022-12-19T15:17:54.461Z,99821.53
2022-12-19T15:20:22.419Z,99823.96
2022-12-19T15:22:50.095Z,99822.85
2022-12-19T15:25:44.052Z,99824.84
2022-12-19T15:28:17.737Z,99820.13
2022-12-19T15:30:50.507Z,99808.25
2022-12-19T15:33:18.183Z,99804.66
2022-12-19T15:35:45.765Z,99809.66
2022-12-19T15:38:13.306Z,99808.17
2022-12-19T15:40:41.990Z,99807.79
2022-12-19T15:43:44.885Z,99810.77
2022-12-19T15:46:06.053Z,99815.73
2022-12-19T15:48:37.424Z,99817.50
2022-12-19T15:51:05.528Z,99808.80
2022-12-19T15:53:40.804Z,99806.91
2022-12-19T15:56:26.897Z,99811.41
2022-12-19T15:58:57.353Z,99808.89
2022-12-19T16:01:26.113Z,99797.80
2022-12-19T16:03:54.350Z,99794.23
2022-12-19T16:06:22.365Z,99789.08
2022-12-19T16:08:49.974Z,99787.35
2022-12-19T16:11:23.586Z,99787.91
2022-12-19T16:13:54.159Z,99788.09
2022-12-19T16:16:23.407Z,99782.44
2022-12-19T16:18:51.239Z,99785.04
2022-12-19T16:21:23.648Z,99776.88
2022-12-19T16:23:54.979Z,99787.16
2022-12-19T16:26:34.833Z,99786.08
2022-12-19T16:29:03.150Z,99770.96
2022-12-19T16:31:30.824Z,99768.12
2022-12-19T16:33:58.478Z,99767.23
2022-12-19T16:36:26.086Z,99760.92
2022-12-19T16:38:53.648Z,99755.29
2022-12-19T16:41:24.469Z,99754.14
2022-12-19T16:43:52.596Z,99753.38
2022-12-19T16:46:22.997Z,99760.27
2022-12-19T16:48:50.594Z,99754.89
2022-12-19T16:51:21.562Z,99753.98
2022-12-19T16:53:49.840Z,99755.55
2022-12-19T16:56:43.636Z,99752.36
2022-12-19T16:59:22.635Z,99749.42
2022-12-19T17:01:51.320Z,99748.36
2022-12-19T17:04:22.764Z,99744.58
2022-12-19T17:06:54.237Z,99738.48
2022-12-19T17:09:25.337Z,99735.24
2022-12-19T17:11:57.281Z,99737.86
2022-12-19T17:14:27.232Z,99734.85
2022-12-19T17:16:55.949Z,99737.05
2022-12-19T17:19:34.445Z,99736.36
2022-12-19T17:22:02.176Z,99736.71
2022-12-19T17:24:29.755Z,99736.54
2022-12-19T17:26:57.311Z,99735.73
2022-12-19T17:29:24.922Z,99732.58
2022-12-19T17:31:52.619Z,99730.17
2022-12-19T17:34:30.782Z,99732.80
2022-12-19T17:36:59.281Z,99729.19
2022-12-19T17:39:30.310Z,99720.80
2022-12-19T17:42:01.478Z,99720.56
2022-12-19T17:44:29.056Z,99715.50
2022-12-19T17:46:56.639Z,99719.53
2022-12-19T17:49:30.298Z,99722.02
2022-12-19T17:51:59.713Z,99721.00
2022-12-19T17:54:27.591Z,99722.74
2022-12-19T17:56:55.596Z,99723.48
2022-12-19T17:59:23.218Z,99728.98
2022-12-19T18:01:50.935Z,99724.10
2022-12-19T18:04:20.228Z,99724.14
2022-12-19T18:06:48.515Z,99717.83
2022-12-19T18:09:21.228Z,99711.30
2022-12-19T18:11:55.969Z,99712.09
2022-12-19T18:14:24.043Z,99713.33
2022-12-19T18:16:51.794Z,99713.92
2022-12-19T18:19:22.471Z,99715.23
2022-12-19T18:21:50.268Z,99714.35
2022-12-19T18:24:17.813Z,99715.71
2022-12-19T18:26:45.979Z,99709.47
2022-12-19T18:29:14.070Z,99705.90
2022-12-19T18:31:49.763Z,99700.45
2022-12-19T18:34:21.493Z,99695.93
2022-12-19T18:36:49.294Z,99686.40
2022-12-19T18:39:21.327Z,99685.15
2022-12-19T18:41:49.843Z,99688.48
2022-12-19T18:44:17.862Z,99682.27
2022-12-19T18:46:48.517Z,99676.04
2022-12-19T18:49:17.477Z,99675.34
2022-12-19T18:51:45.280Z,99676.70
2022-12-19T18:54:15.629Z,99664.23
2022-12-19T18:56:43.488Z,99662.66
2022-12-19T18:59:11.484Z,99659.06
2022-12-19T19:01:43.246Z,99648.44
2022-12-19T19:04:11.131Z,99649.46
2022-12-19T19:06:40.277Z,99652.17
2022-12-19T19:09:16.446Z,99647.43
2022-12-19T19:11:44.256Z,99641.91
2022-12-19T19:14:11.922Z,99646.45
2022-12-19T19:16:39.889Z,99648.39
2022-12-19T19:19:11.911Z,99645.30
2022-12-19T19:21:39.500Z,99641.90
2022-12-19T19:24:25.314Z,99642.16
2022-12-19T19:26:52.854Z,99645.28
2022-12-19T19:29:20.422Z,99642.82
2022-12-19T19:31:51.745Z,99640.91
2022-12-19T19:34:28.213Z,99642.99
2022-12-19T19:36:58.547Z,99646.94
2022-12-19T19:39:26.852Z,99639.41
2022-12-19T19:41:55.012Z,99642.84
2022-12-19T19:44:24.144Z,99641.77
2022-12-19T19:46:51.797Z,99639.83
2022-12-19T19:49:23.047Z,99637.38
2022-12-19T19:52:00.289Z,99636.77
2022-12-19T19:54:31.335Z,99628.27
2022-12-19T19:56:58.879Z,99629.16
2022-12-19T19:59:29.972Z,99629.52
2022-12-19T20:01:57.642Z,99635.05
2022-12-19T20:04:25.719Z,99632.45
2022-12-19T20:06:53.323Z,99629.34
2022-12-19T20:09:20.924Z,99627.91
2022-12-19T20:11:48.484Z,99629.48
2022-12-19T20:14:16.076Z,99629.43
2022-12-19T20:16:43.739Z,99623.36
2022-12-19T20:19:11.408Z,99620.63
2022-12-19T20:21:38.978Z,99622.29
2022-12-19T20:24:06.690Z,99618.06
2022-12-19T20:26:34.911Z,99609.97
2022-12-19T20:29:03.263Z,99611.77
2022-12-19T20:31:30.905Z,99606.63
2022-12-19T20:33:58.770Z,99604.55
2022-12-19T20:36:26.345Z,99599.75
2022-12-19T20:38:53.913Z,99605.39
2022-12-19T20:41:21.586Z,99603.73
2022-12-19T20:43:49.193Z,99609.73
2022-12-19T20:46:19.377Z,99613.70
2022-12-19T20:48:48.036Z,99614.99
2022-12-19T20:51:17.822Z,99615.37
2022-12-19T20:53:45.919Z,99613.75
2022-12-19T20:56:18.704Z,99608.76
2022-12-19T20:58:46.787Z,99603.23
2022-12-19T21:01:22.592Z,99595.92
2022-12-19T21:03:51.003Z,99590.70
2022-12-19T21:06:20.443Z,99593.67
2022-12-19T21:08:48.423Z,99582.20
2022-12-19T21:11:16.231Z,99579.13
2022-12-19T21:13:44.737Z,99575.68
2022-12-19T21:16:15.062Z,99579.66
2022-12-19T21:18:44.585Z,99573.55
2022-12-19T21:21:16.362Z,99574.92
2022-12-19T21:23:44.275Z,99569.59
2022-12-19T21:26:11.899Z,99571.77
2022-12-19T21:28:39.522Z,99567.91
2022-12-19T21:31:20.472Z,99559.13
2022-12-19T21:33:49.085Z,99561.40
2022-12-19T21:36:20.553Z,99561.00
2022-12-19T21:38:50.595Z,99558.11
2022-12-19T21:41:18.746Z,99558.21
2022-12-19T21:43:48.184Z,99542.73
2022-12-19T21:46:16.689Z,99538.27
2022-12-19T21:48:47.377Z,99534.46
2022-12-19T21:51:15.690Z,99539.75
2022-12-19T21:53:43.289Z,99541.80
2022-12-19T21:56:16.513Z,99535.80
2022-12-19T21:58:44.101Z,99540.19
2022-12-19T22:01:13.386Z,99537.02
2022-12-19T22:03:41.378Z,99537.70
2022-12-19T22:06:18.785Z,99534.48
2022-12-19T22:08:49.331Z,99534.98
2022-12-19T22:11:20.416Z,99537.02
2022-12-19T22:13:49.180Z,99540.38
2022-12-19T22:16:17.578Z,99539.39
2022-12-19T22:18:46.171Z,99542.08
2022-12-19T22:21:15.427Z,99545.48
2022-12-19T22:23:43.153Z,99545.62
2022-12-19T22:26:16.293Z,99541.23
2022-12-19T22:28:46.505Z,99535.08
2022-12-19T22:31:21.593Z,99520.34
2022-12-19T22:33:51.813Z,99521.04
2022-12-19T22:36:27.593Z,99522.38
2022-12-19T22:38:57.124Z,99526.89
2022-12-19T22:41:24.937Z,99520.70
2022-12-19T22:43:53.304Z,99514.95
2022-12-19T22:46:23.688Z,99511.50
2022-12-19T22:48:51.340Z,99514.73
2022-12-19T22:51:20.131Z,99509.88
2022-12-19T22:53:47.969Z,99511.73
2022-12-19T22:56:21.312Z,99509.05
2022-12-19T22:58:50.975Z,99505.52
2022-12-19T23:01:24.009Z,99502.43
2022-12-19T23:03:54.175Z,99496.17
2022-12-19T23:06:23.682Z,99497.40
2022-12-19T23:08:51.914Z,99495.09
2022-12-19T23:11:24.295Z,99494.77
2022-12-19T23:13:52.065Z,99493.45
2022-12-19T23:16:19.693Z,99489.59
2022-12-19T23:18:47.285Z,99484.40
2022-12-19T23:21:17.582Z,99480.33
2022-12-19T23:23:47.613Z,99479.05
2022-12-19T23:26:18.251Z,99478.57
2022-12-19T23:28:52.722Z,99475.23
2022-12-19T23:31:20.442Z,99478.95
2022-12-19T23:33:48.096Z,99476.79
2022-12-19T23:36:16.418Z,99476.27
2022-12-19T23:38:44.465Z,99468.04
2022-12-19T23:41:14.730Z,99467.09
2022-12-19T23:43:42.662Z,99469.35
2022-12-19T23:46:16.187Z,99468.02
2022-12-19T23:48:44.393Z,99467.67
2022-12-19T23:51:17.452Z,99469.00
2022-12-19T23:53:45.830Z,99474.34
2022-12-19T23:56:22.167Z,99478.16
2022-12-19T23:58:50.279Z,99484.19
